createdAt,value
2022-12-15T00:02:43.393Z,50.60
2022-12-15T00:05:28.801Z,50.40
2022-12-15T00:08:14.402Z,50.10
2022-12-15T00:10:59.588Z,50.70
2022-12-15T00:13:44.950Z,50.50
2022-12-15T00:16:30.415Z,50.60
2022-12-15T00:19:15.804Z,51.20
2022-12-15T00:22:01.122Z,50.40
2022-12-15T00:24:49.609Z,50.50
2022-12-15T00:27:35.314Z,50.90
2022-12-15T00:30:21.276Z,51.00
2022-12-15T00:33:06.539Z,50.80
2022-12-15T00:35:51.942Z,50.50
2022-12-15T00:38:37.292Z,50.90
2022-12-15T00:41:04.802Z,50.60
2022-12-15T00:43:33.766Z,51.40
2022-12-15T00:46:20.728Z,51.10
2022-12-15T00:48:48.306Z,50.80
2022-12-15T00:51:16.306Z,50.90
2022-12-15T00:54:01.988Z,51.20
2022-12-15T00:56:47.866Z,50.90
2022-12-15T00:59:34.198Z,50.50
2022-12-15T01:02:20.553Z,51.30
2022-12-15T01:05:06.189Z,51.20
2022-12-15T01:07:52.180Z,51.40
2022-12-15T01:10:38.013Z,51.60
2022-12-15T01:13:24.129Z,51.30
2022-12-15T01:16:09.485Z,51.10
2022-12-15T01:18:55.105Z,51.70
2022-12-15T01:21:25.016Z,51.90
2022-12-15T01:23:52.529Z,51.40
2022-12-15T01:26:19.566Z,51.40
2022-12-15T01:28:46.537Z,51.90
2022-12-15T01:31:13.649Z,51.50
2022-12-15T01:33:42.804Z,51.60
2022-12-15T01:36:10.610Z,51.80
2022-12-15T01:38:37.750Z,51.80
2022-12-15T01:41:11.373Z,51.30
2022-12-15T01:43:40.823Z,51.20
2022-12-15T01:46:13.850Z,51.50
2022-12-15T01:48:49.187Z,51.70
2022-12-15T01:51:23.781Z,51.40
2022-12-15T01:54:06.289Z,51.70
2022-12-15T01:56:46.016Z,51.40
2022-12-15T01:59:22.415Z,51.50
2022-12-15T02:01:50.024Z,52.70
2022-12-15T02:04:20.998Z,51.70
2022-12-15T02:06:48.308Z,51.90
2022-12-15T02:09:16.492Z,51.90
2022-12-15T02:12:00.841Z,51.90
2022-12-15T02:14:45.749Z,51.60
2022-12-15T02:17:24.440Z,50.90
2022-12-15T02:20:35.512Z,51.10
2022-12-15T02:23:22.658Z,50.80
2022-12-15T02:26:20.538Z,50.50
2022-12-15T02:29:10.406Z,51.20
2022-12-15T02:31:50.504Z,50.80
2022-12-15T02:34:40.731Z,50.80
2022-12-15T02:37:22.587Z,50.20
2022-12-15T02:39:49.522Z,50.10
2022-12-15T02:42:16.836Z,50.20
2022-12-15T02:44:43.630Z,50.50
2022-12-15T02:47:38.938Z,50.60
2022-12-15T02:50:26.957Z,49.90
2022-12-15T02:53:20.930Z,49.60
2022-12-15T02:56:00.810Z,50.20
2022-12-15T02:58:37.295Z,50.30
2022-12-15T03:01:12.177Z,49.40
2022-12-15T03:03:41.002Z,49.80
2022-12-15T03:06:09.592Z,50.30
2022-12-15T03:08:36.444Z,49.90
2022-12-15T03:11:03.469Z,50.00
2022-12-15T03:13:30.759Z,49.60
2022-12-15T03:15:59.532Z,50.30
2022-12-15T03:18:27.180Z,50.10
2022-12-15T03:20:54.100Z,50.00
2022-12-15T03:23:22.999Z,49.80
2022-12-15T03:25:50.457Z,49.50
2022-12-15T03:28:18.034Z,50.00
2022-12-15T03:30:45.242Z,50.00
2022-12-15T03:33:17.444Z,49.60
2022-12-15T03:35:44.401Z,49.60
2022-12-15T03:38:11.479Z,50.00
2022-12-15T03:40:38.341Z,50.20
2022-12-15T03:43:05.291Z,49.80
2022-12-15T03:45:32.288Z,49.70
2022-12-15T03:47:59.195Z,49.60
2022-12-15T03:50:28.616Z,49.40
2022-12-15T03:53:00.442Z,49.60
2022-12-15T03:55:28.915Z,49.80
2022-12-15T03:57:56.301Z,50.20
2022-12-15T04:00:24.780Z,49.70
2022-12-15T04:02:52.013Z,49.60
2022-12-15T04:05:23.051Z,49.90
2022-12-15T04:07:50.005Z,49.60
2022-12-15T04:10:17.041Z,49.90
2022-12-15T04:12:43.951Z,49.70
2022-12-15T04:15:12.465Z,49.70
2022-12-15T04:17:39.414Z,49.60
2022-12-15T04:20:10.321Z,49.60
2022-12-15T04:22:39.546Z,49.70
2022-12-15T04:25:27.204Z,49.70
2022-12-15T04:28:13.078Z,49.30
2022-12-15T04:31:04.587Z,49.70
2022-12-15T04:33:50.467Z,49.50
2022-12-15T04:36:36.153Z,49.80
2022-12-15T04:39:23.988Z,49.40
2022-12-15T04:42:11.011Z,50.00
2022-12-15T04:44:56.310Z,49.40
2022-12-15T04:47:41.833Z,49.30
2022-12-15T04:50:27.612Z,49.20
2022-12-15T04:53:12.983Z,48.90
2022-12-15T04:55:58.317Z,49.40
2022-12-15T04:58:43.593Z,49.50
2022-12-15T05:01:29.079Z,49.50
2022-12-15T05:04:14.719Z,49.50
2022-12-15T05:07:00.051Z,49.60
2022-12-15T05:09:45.553Z,49.70
2022-12-15T05:12:31.029Z,49.30
2022-12-15T05:15:17.000Z,49.40
2022-12-15T05:18:02.492Z,49.30
2022-12-15T05:20:50.104Z,49.90
2022-12-15T05:23:35.793Z,49.60
2022-12-15T05:26:21.073Z,49.20
2022-12-15T05:29:06.649Z,49.40
2022-12-15T05:31:51.654Z,49.40
2022-12-15T05:34:23.448Z,49.70
2022-12-15T05:36:50.970Z,49.60
2022-12-15T05:39:18.055Z,49.30
2022-12-15T05:41:45.021Z,49.50
2022-12-15T05:44:12.371Z,49.20
2022-12-15T05:46:39.625Z,49.00
2022-12-15T05:49:08.616Z,49.20
2022-12-15T05:51:40.388Z,49.60
2022-12-15T05:54:09.060Z,49.30
2022-12-15T05:56:36.287Z,49.50
2022-12-15T05:59:03.690Z,49.70
2022-12-15T06:01:31.575Z,49.30
2022-12-15T06:03:59.453Z,49.50
2022-12-15T06:06:26.483Z,49.00
2022-12-15T06:08:53.505Z,49.10
2022-12-15T06:11:22.198Z,49.30
2022-12-15T06:13:49.336Z,49.20
2022-12-15T06:16:21.348Z,48.70
2022-12-15T06:18:54.868Z,49.10
2022-12-15T06:21:24.768Z,48.60
2022-12-15T06:23:52.635Z,49.20
2022-12-15T06:26:28.296Z,49.40
2022-12-15T06:28:57.535Z,49.10
2022-12-15T06:31:25.756Z,49.40
2022-12-15T06:34:01.026Z,49.40
2022-12-15T06:36:30.721Z,49.30
2022-12-15T06:39:02.359Z,48.80
2022-12-15T06:41:30.691Z,48.70
2022-12-15T06:43:58.004Z,49.00
2022-12-15T06:46:26.634Z,48.90
2022-12-15T06:48:53.722Z,49.30
2022-12-15T06:51:21.109Z,49.00
2022-12-15T06:53:54.204Z,49.20
2022-12-15T06:56:34.681Z,48.50
2022-12-15T06:59:06.390Z,48.20
2022-12-15T07:01:33.825Z,49.00
2022-12-15T07:04:02.933Z,48.60
2022-12-15T07:06:36.587Z,48.80
2022-12-15T07:09:07.164Z,48.00
2022-12-15T07:11:35.255Z,48.50
2022-12-15T07:14:02.243Z,46.90
2022-12-15T07:16:29.204Z,49.00
2022-12-15T07:18:56.128Z,49.00
2022-12-15T07:21:23.100Z,48.90
2022-12-15T07:23:55.285Z,49.30
2022-12-15T07:26:23.731Z,49.60
2022-12-15T07:28:51.277Z,49.50
2022-12-15T07:31:18.355Z,49.30
2022-12-15T07:33:45.528Z,49.30
2022-12-15T07:36:13.224Z,49.70
2022-12-15T07:38:40.123Z,50.10
2022-12-15T07:41:08.132Z,50.30
2022-12-15T07:43:36.202Z,50.30
2022-12-15T07:46:05.055Z,49.90
2022-12-15T07:48:32.901Z,49.90
2022-12-15T07:51:11.034Z,49.70
2022-12-15T07:53:42.503Z,50.00
2022-12-15T07:56:10.434Z,49.30
2022-12-15T07:58:38.751Z,49.20
2022-12-15T08:01:08.381Z,49.60
2022-12-15T08:03:36.699Z,49.60
2022-12-15T08:06:15.083Z,49.60
2022-12-15T08:08:44.360Z,49.20
2022-12-15T08:11:14.319Z,49.70
2022-12-15T08:16:31.501Z,49.20
2022-12-15T08:18:58.491Z,49.30
2022-12-15T08:21:25.428Z,49.50
2022-12-15T08:23:52.521Z,49.20
2022-12-15T08:26:22.675Z,48.90
2022-12-15T08:28:54.239Z,48.60
2022-12-15T08:31:23.649Z,49.10
2022-12-15T08:33:51.140Z,48.90
2022-12-15T08:36:18.991Z,49.00
2022-12-15T08:38:46.885Z,48.90
2022-12-15T08:41:17.109Z,49.10
2022-12-15T08:43:48.533Z,48.90
2022-12-15T08:46:17.909Z,49.00
2022-12-15T08:48:45.679Z,49.00
2022-12-15T08:51:14.877Z,49.10
2022-12-15T08:53:42.042Z,49.50
2022-12-15T08:56:18.156Z,49.00
2022-12-15T08:58:46.970Z,49.10
2022-12-15T09:01:22.375Z,49.10
2022-12-15T09:03:52.115Z,49.00
2022-12-15T09:06:22.394Z,48.90
2022-12-15T09:08:50.421Z,49.10
2022-12-15T09:11:18.137Z,49.10
2022-12-15T09:13:44.992Z,49.20
2022-12-15T09:16:15.303Z,49.10
2022-12-15T09:18:44.183Z,49.10
2022-12-15T09:21:11.931Z,49.00
2022-12-15T09:23:39.903Z,48.90
2022-12-15T09:26:14.669Z,49.40
2022-12-15T09:28:45.247Z,48.90
2022-12-15T09:31:23.573Z,49.10
2022-12-15T09:33:55.697Z,49.30
2022-12-15T09:36:23.353Z,49.10
2022-12-15T09:38:50.384Z,49.40
2022-12-15T09:41:23.791Z,49.20
2022-12-15T09:44:13.443Z,48.90
2022-12-15T09:47:06.063Z,49.00
2022-12-15T09:49:53.328Z,49.10
2022-12-15T09:52:22.802Z,49.20
2022-12-15T09:54:50.003Z,49.40
2022-12-15T09:57:32.005Z,49.50
2022-12-15T10:00:11.769Z,49.50
2022-12-15T10:03:16.589Z,49.40
2022-12-15T10:06:20.045Z,49.30
2022-12-15T10:09:09.333Z,49.90
2022-12-15T10:12:00.989Z,49.60
2022-12-15T10:14:35.279Z,49.70
2022-12-15T10:17:21.528Z,49.70
2022-12-15T10:20:00.477Z,49.70
2022-12-15T10:22:38.064Z,49.80
2022-12-15T10:28:25.173Z,49.30
2022-12-15T10:31:03.481Z,49.50
2022-12-15T10:33:39.855Z,49.50
2022-12-15T10:36:16.072Z,49.80
2022-12-15T10:41:34.451Z,49.40
2022-12-15T10:44:02.759Z,49.50
2022-12-15T10:46:31.992Z,49.40
2022-12-15T10:49:21.425Z,49.40
2022-12-15T10:51:54.435Z,49.40
2022-12-15T10:54:22.068Z,49.40
2022-12-15T10:56:54.667Z,49.60
2022-12-15T10:59:25.502Z,49.30
2022-12-15T11:01:53.169Z,49.30
2022-12-15T11:04:28.602Z,49.80
2022-12-15T11:07:01.416Z,48.90
2022-12-15T11:09:39.055Z,48.80
2022-12-15T11:12:40.892Z,45.80
2022-12-15T11:15:23.091Z,46.90
2022-12-15T11:18:13.679Z,48.80
2022-12-15T11:20:44.749Z,49.20
2022-12-15T11:23:48.759Z,49.40
2022-12-15T11:26:22.708Z,51.00
2022-12-15T11:28:58.928Z,51.20
2022-12-15T11:31:38.538Z,50.10
2022-12-15T11:34:17.627Z,50.00
2022-12-15T11:36:44.499Z,49.30
2022-12-15T11:39:23.972Z,48.90
2022-12-15T11:42:01.515Z,48.50
2022-12-15T11:44:38.537Z,49.10
2022-12-15T11:47:40.747Z,49.20
2022-12-15T11:50:34.149Z,49.30
2022-12-15T11:53:26.190Z,48.90
2022-12-15T11:56:14.533Z,48.80
2022-12-15T11:58:50.026Z,48.40
2022-12-15T12:01:55.274Z,48.40
2022-12-15T12:04:42.251Z,47.60
2022-12-15T12:07:38.447Z,47.60
2022-12-15T12:10:16.782Z,47.70
2022-12-15T12:12:56.199Z,48.30
2022-12-15T12:15:37.622Z,48.10
2022-12-15T12:18:10.812Z,48.60
2022-12-15T12:20:47.108Z,48.30
2022-12-15T12:23:24.386Z,48.00
2022-12-15T12:26:12.901Z,48.00
2022-12-15T12:32:04.202Z,47.80
2022-12-15T12:34:41.080Z,47.30
2022-12-15T12:37:23.851Z,47.50
2022-12-15T12:39:54.062Z,47.40
2022-12-15T12:42:34.038Z,47.10
2022-12-15T12:45:02.282Z,47.10
2022-12-15T12:47:38.354Z,46.90
2022-12-15T12:50:15.219Z,46.70
2022-12-15T12:52:55.166Z,47.10
2022-12-15T12:55:45.656Z,47.10
2022-12-15T12:58:32.145Z,46.60
2022-12-15T13:01:11.230Z,46.70
2022-12-15T13:03:43.577Z,46.60
2022-12-15T13:06:36.263Z,46.80
2022-12-15T13:09:23.204Z,46.50
2022-12-15T13:11:52.794Z,46.60
2022-12-15T13:14:26.400Z,46.60
2022-12-15T13:17:28.010Z,46.70
2022-12-15T13:20:01.404Z,46.30
2022-12-15T13:22:34.324Z,46.70
2022-12-15T13:25:03.127Z,46.80
2022-12-15T13:27:38.254Z,46.50
2022-12-15T13:30:07.761Z,46.20
2022-12-15T13:32:36.361Z,46.10
2022-12-15T13:35:12.349Z,46.10
2022-12-15T13:37:49.059Z,45.80
2022-12-15T13:40:35.399Z,46.00
2022-12-15T13:43:05.145Z,45.70
2022-12-15T13:45:42.972Z,45.90
2022-12-15T13:48:24.140Z,46.10
2022-12-15T13:51:37.241Z,45.90
2022-12-15T13:54:31.370Z,45.60
2022-12-15T13:57:03.512Z,45.80
2022-12-15T13:59:41.765Z,46.10
2022-12-15T14:02:27.443Z,45.40
2022-12-15T14:05:18.932Z,45.90
2022-12-15T14:07:54.371Z,45.80
2022-12-15T14:10:24.933Z,46.50
2022-12-15T14:12:53.215Z,46.30
2022-12-15T14:15:26.623Z,46.20
2022-12-15T14:17:56.118Z,46.40
2022-12-15T14:20:27.210Z,46.30
2022-12-15T14:22:55.014Z,46.50
2022-12-15T14:25:24.922Z,46.50
2022-12-15T14:27:52.032Z,46.30
2022-12-15T14:30:29.488Z,45.80
2022-12-15T14:33:18.484Z,45.30
2022-12-15T14:35:49.907Z,45.10
2022-12-15T14:38:21.945Z,44.80
2022-12-15T14:40:51.979Z,44.90
2022-12-15T14:43:29.148Z,45.10
2022-12-15T14:46:05.482Z,45.40
2022-12-15T14:48:41.556Z,46.10
2022-12-15T14:51:12.789Z,45.90
2022-12-15T14:53:41.841Z,46.20
2022-12-15T14:56:29.391Z,46.00
2022-12-15T14:59:00.310Z,46.30
2022-12-15T15:01:31.093Z,46.20
2022-12-15T15:03:06.627Z,49.50
2022-12-15T15:03:12.307Z,49.30
2022-12-15T15:03:12.732Z,47.70
2022-12-15T15:04:24.542Z,46.40
2022-12-15T15:06:56.017Z,46.60
2022-12-15T15:09:55.624Z,45.90
2022-12-15T15:12:25.890Z,45.80
2022-12-15T15:15:03.063Z,45.90
2022-12-15T15:17:37.796Z,45.70
2022-12-15T15:20:17.630Z,45.90
2022-12-15T15:23:02.316Z,45.70
2022-12-15T15:25:40.882Z,46.10
2022-12-15T15:28:20.089Z,46.10
2022-12-15T15:30:50.248Z,46.30
2022-12-15T15:33:19.384Z,46.70
2022-12-15T15:35:54.061Z,46.70
2022-12-15T15:38:26.998Z,46.50
2022-12-15T15:40:56.955Z,46.60
2022-12-15T15:43:25.787Z,46.90
2022-12-15T15:46:14.622Z,47.00
2022-12-15T15:48:54.402Z,47.80
2022-12-15T15:51:23.811Z,47.30
2022-12-15T15:53:50.918Z,47.80
2022-12-15T15:56:18.305Z,47.90
2022-12-15T15:58:45.423Z,47.30
2022-12-15T16:01:13.656Z,47.90
2022-12-15T16:03:41.720Z,47.20
2022-12-15T16:06:20.563Z,47.90
2022-12-15T16:08:51.920Z,47.80
2022-12-15T16:11:20.119Z,47.50
2022-12-15T16:13:47.135Z,47.60
2022-12-15T16:16:23.922Z,47.70
2022-12-15T16:18:51.103Z,47.60
2022-12-15T16:21:19.773Z,47.90
2022-12-15T16:23:48.476Z,47.80
2022-12-15T16:26:19.979Z,47.90
2022-12-15T16:28:47.028Z,47.90
2022-12-15T16:31:32.955Z,47.40
2022-12-15T16:34:05.214Z,47.40
2022-12-15T16:36:32.911Z,47.80
2022-12-15T16:39:01.237Z,48.00
2022-12-15T16:41:28.531Z,47.70
2022-12-15T16:43:55.499Z,47.40
2022-12-15T16:46:22.546Z,48.30
2022-12-15T16:48:49.497Z,48.00
2022-12-15T16:51:34.368Z,48.50
2022-12-15T16:54:01.716Z,48.10
2022-12-15T16:56:28.622Z,48.60
2022-12-15T16:59:15.585Z,48.40
2022-12-15T17:01:44.494Z,48.40
2022-12-15T17:04:12.179Z,48.30
2022-12-15T17:06:39.583Z,48.50
2022-12-15T17:09:08.860Z,48.30
2022-12-15T17:11:35.951Z,48.70
2022-12-15T17:14:03.106Z,48.60
2022-12-15T17:16:30.230Z,48.70
2022-12-15T17:18:57.336Z,49.20
2022-12-15T17:21:29.502Z,48.80
2022-12-15T17:24:04.325Z,48.40
2022-12-15T17:26:33.307Z,48.20
2022-12-15T17:29:07.944Z,48.20
2022-12-15T17:31:36.165Z,48.70
2022-12-15T17:34:30.747Z,47.90
2022-12-15T17:37:06.114Z,47.80
2022-12-15T17:39:34.945Z,48.90
2022-12-15T17:42:02.877Z,49.10
2022-12-15T17:44:35.561Z,49.00
2022-12-15T17:47:05.494Z,48.70
2022-12-15T17:49:35.968Z,48.90
2022-12-15T17:52:19.119Z,48.70
2022-12-15T17:54:46.114Z,48.50
2022-12-15T17:57:13.136Z,48.60
2022-12-15T17:59:40.344Z,48.50
2022-12-15T18:02:12.059Z,48.50
2022-12-15T18:04:39.273Z,48.40
2022-12-15T18:07:06.540Z,47.70
2022-12-15T18:09:33.422Z,49.40
2022-12-15T18:12:00.345Z,50.10
2022-12-15T18:14:27.845Z,51.20
2022-12-15T18:16:55.261Z,51.60
2022-12-15T18:19:23.302Z,51.70
2022-12-15T18:21:50.213Z,52.10
2022-12-15T18:24:19.301Z,52.30
2022-12-15T18:26:46.628Z,52.50
2022-12-15T18:29:17.844Z,52.60
2022-12-15T18:31:47.116Z,52.80
2022-12-15T18:34:17.598Z,52.60
2022-12-15T18:36:45.066Z,53.10
2022-12-15T18:39:20.452Z,53.00
2022-12-15T18:41:48.597Z,52.80
2022-12-15T18:44:26.494Z,53.70
2022-12-15T18:46:55.169Z,53.70
2022-12-15T18:49:24.595Z,53.10
2022-12-15T18:51:58.014Z,52.80
2022-12-15T18:54:30.939Z,52.60
2022-12-15T18:56:57.853Z,52.60
2022-12-15T18:59:27.399Z,52.90
2022-12-15T19:01:54.778Z,52.30
2022-12-15T19:04:21.767Z,52.40
2022-12-15T19:06:48.717Z,51.80
2022-12-15T19:09:23.369Z,52.30
2022-12-15T19:12:09.125Z,51.90
2022-12-15T19:14:42.714Z,51.40
2022-12-15T19:17:34.004Z,51.10
2022-12-15T19:20:37.158Z,51.10
2022-12-15T19:23:05.283Z,50.80
2022-12-15T19:25:32.965Z,50.70
2022-12-15T19:28:01.109Z,50.90
2022-12-15T19:30:30.758Z,50.90
2022-12-15T19:32:57.979Z,50.70
2022-12-15T19:35:27.403Z,50.60
2022-12-15T19:37:57.678Z,50.40
2022-12-15T19:40:27.756Z,50.30
2022-12-15T19:42:55.511Z,50.30
2022-12-15T19:45:25.987Z,50.70
2022-12-15T19:47:53.142Z,50.60
2022-12-15T19:50:29.330Z,50.60
2022-12-15T19:52:59.600Z,50.70
2022-12-15T19:55:34.747Z,50.00
2022-12-15T19:58:28.599Z,50.10
2022-12-15T20:01:01.137Z,50.00
2022-12-15T20:03:30.217Z,50.50
2022-12-15T20:05:59.554Z,50.60
2022-12-15T20:08:29.641Z,50.60
2022-12-15T20:10:57.416Z,50.10
2022-12-15T20:13:26.485Z,50.30
2022-12-15T20:15:54.685Z,50.30
2022-12-15T20:18:22.115Z,50.40
2022-12-15T20:20:50.946Z,50.40
2022-12-15T20:23:21.479Z,48.10
2022-12-15T20:25:48.549Z,48.70
2022-12-15T20:28:27.632Z,48.50
2022-12-15T20:30:56.292Z,50.10
2022-12-15T20:33:23.425Z,50.40
2022-12-15T20:35:51.627Z,50.80
2022-12-15T20:38:31.934Z,51.20
2022-12-15T20:41:01.533Z,50.90
2022-12-15T20:43:31.617Z,50.90
2022-12-15T20:46:19.261Z,50.80
2022-12-15T20:48:47.164Z,50.70
2022-12-15T20:51:26.305Z,50.20
2022-12-15T20:53:55.765Z,49.80
2022-12-15T20:56:23.426Z,49.80
2022-12-15T20:58:55.318Z,50.00
2022-12-15T21:01:29.114Z,50.00
2022-12-15T21:03:57.638Z,50.00
2022-12-15T21:06:25.676Z,49.90
2022-12-15T21:08:52.965Z,49.80
2022-12-15T21:11:32.709Z,50.20
2022-12-15T21:14:04.218Z,49.70
2022-12-15T21:16:32.997Z,49.60
2022-12-15T21:19:22.392Z,50.10
2022-12-15T21:21:54.955Z,49.80
2022-12-15T21:24:28.637Z,49.70
2022-12-15T21:26:56.191Z,49.80
2022-12-15T21:29:25.596Z,49.50
2022-12-15T21:31:52.769Z,49.60
2022-12-15T21:34:19.784Z,49.60
2022-12-15T21:36:51.788Z,49.60
2022-12-15T21:39:39.669Z,49.50
2022-12-15T21:42:12.062Z,49.50
2022-12-15T21:44:38.991Z,49.40
2022-12-15T21:47:25.651Z,49.20
2022-12-15T21:49:52.705Z,49.90
2022-12-15T21:52:19.951Z,49.30
2022-12-15T21:54:46.964Z,49.20
2022-12-15T21:57:13.910Z,48.90
2022-12-15T21:59:40.891Z,49.10
2022-12-15T22:02:25.550Z,50.20
2022-12-15T22:04:52.823Z,50.00
2022-12-15T22:07:22.220Z,49.50
2022-12-15T22:09:49.161Z,49.50
2022-12-15T22:12:20.308Z,50.10
2022-12-15T22:14:47.513Z,50.00
2022-12-15T22:17:20.171Z,49.70
2022-12-15T22:19:47.731Z,49.60
2022-12-15T22:22:15.577Z,49.40
2022-12-15T22:24:42.870Z,49.40
2022-12-15T22:27:32.506Z,49.40
2022-12-15T22:29:59.716Z,49.40
2022-12-15T22:32:26.641Z,49.80
2022-12-15T22:34:53.664Z,49.70
2022-12-15T22:37:20.587Z,50.20
2022-12-15T22:39:49.480Z,49.90
2022-12-15T22:42:18.860Z,49.60
2022-12-15T22:44:46.079Z,49.40
2022-12-15T22:47:13.149Z,49.80
2022-12-15T22:49:41.201Z,49.10
2022-12-15T22:52:19.631Z,49.30
2022-12-15T22:54:47.880Z,48.90
2022-12-15T22:57:26.727Z,48.80
2022-12-15T23:00:05.704Z,48.90
2022-12-15T23:02:36.933Z,48.90
2022-12-15T23:05:05.880Z,49.20
2022-12-15T23:07:34.037Z,49.10
2022-12-15T23:10:19.854Z,49.10
2022-12-15T23:12:47.307Z,48.90
2022-12-15T23:15:32.872Z,49.40
2022-12-15T23:17:59.846Z,49.70
2022-12-15T23:20:26.907Z,50.20
2022-12-15T23:22:54.096Z,49.70
2022-12-15T23:25:21.938Z,50.10
2022-12-15T23:27:48.819Z,50.30
2022-12-15T23:30:15.998Z,50.50
2022-12-15T23:32:43.361Z,50.60
2022-12-15T23:35:10.543Z,50.60
2022-12-15T23:37:37.474Z,50.30
2022-12-15T23:40:04.939Z,50.20
2022-12-15T23:42:31.930Z,50.10
2022-12-15T23:44:58.979Z,50.40
2022-12-15T23:47:25.909Z,50.30
2022-12-15T23:49:53.187Z,50.50
2022-12-15T23:52:20.520Z,50.40
2022-12-15T23:54:47.434Z,50.30
2022-12-15T23:57:14.411Z,50.10
2022-12-15T23:59:41.304Z,50.20
